FAD3052 MDSI-MDSI
Flight info
| Callsign | FAD3052 |
|---|---|
| Flight time | 0h 0m |
| Altitude | 800 |
| Route | VFR |
| Aircraft | B06/L-SFG/C |
Departure
| Time | 2026-04-22 04:43 |
|---|---|
| Airport | San Isidro Air Base (MDSI) |
Arrival
| Time | 2026-04-22 04:44 |
|---|---|
| Airport | San Isidro Air Base (MDSI) |
| Time | Latitude | Longitude | Altitude | Speed | Heading |
|---|---|---|---|---|---|
| 2026-04-22 04:29 | 18.50210 | -69.76807 | 116 ft | 0 kts | 262° |
| 2026-04-22 04:31 | 18.50197 | -69.76790 | 140 ft | 23 kts | 93° |
| 2026-04-22 04:31 | 18.50130 | -69.76589 | 147 ft | 17 kts | 100° |
| 2026-04-22 04:31 | 18.50123 | -69.76552 | 151 ft | 5 kts | 19° |
| 2026-04-22 04:32 | 18.50411 | -69.76422 | 132 ft | 66 kts | 25° |
| 2026-04-22 04:32 | 18.50823 | -69.76309 | 293 ft | 65 kts | 353° |
| 2026-04-22 04:32 | 18.51246 | -69.76584 | 327 ft | 78 kts | 303° |
| 2026-04-22 04:32 | 18.51246 | -69.77167 | 357 ft | 87 kts | 248° |
| 2026-04-22 04:33 | 18.50893 | -69.77690 | 425 ft | 87 kts | 221° |
| 2026-04-22 04:33 | 18.50319 | -69.77920 | 468 ft | 94 kts | 189° |
| 2026-04-22 04:33 | 18.49686 | -69.78014 | 574 ft | 92 kts | 187° |
| 2026-04-22 04:33 | 18.49045 | -69.78098 | 640 ft | 95 kts | 187° |
| 2026-04-22 04:34 | 18.48381 | -69.78171 | 646 ft | 102 kts | 180° |
| 2026-04-22 04:34 | 18.47915 | -69.77690 | 604 ft | 104 kts | 95° |
| 2026-04-22 04:34 | 18.48345 | -69.77164 | 522 ft | 106 kts | 18° |
| 2026-04-22 04:34 | 18.49004 | -69.76933 | 623 ft | 95 kts | 19° |
| 2026-04-22 04:35 | 18.49550 | -69.76762 | 330 ft | 62 kts | 15° |
| 2026-04-22 04:35 | 18.49820 | -69.76676 | 132 ft | 16 kts | 20° |
| 2026-04-22 04:35 | 18.49858 | -69.76664 | 119 ft | 1 kts | 21° |
| 2026-04-22 04:35 | 18.49897 | -69.76649 | 154 ft | 10 kts | 21° |
| 2026-04-22 04:36 | 18.50094 | -69.76570 | 167 ft | 49 kts | 20° |
| 2026-04-22 04:36 | 18.50469 | -69.76398 | 215 ft | 61 kts | 24° |
| 2026-04-22 04:36 | 18.50913 | -69.76384 | 255 ft | 71 kts | 344° |
| 2026-04-22 04:36 | 18.51295 | -69.76724 | 287 ft | 77 kts | 296° |
| 2026-04-22 04:37 | 18.51249 | -69.77286 | 327 ft | 79 kts | 247° |
| 2026-04-22 04:37 | 18.50911 | -69.77712 | 422 ft | 75 kts | 219° |
| 2026-04-22 04:37 | 18.50441 | -69.77949 | 484 ft | 77 kts | 190° |
| 2026-04-22 04:37 | 18.49906 | -69.78025 | 584 ft | 77 kts | 188° |
| 2026-04-22 04:38 | 18.49342 | -69.78110 | 587 ft | 87 kts | 185° |
| 2026-04-22 04:38 | 18.48880 | -69.77780 | 555 ft | 87 kts | 106° |
| 2026-04-22 04:38 | 18.48966 | -69.77134 | 469 ft | 91 kts | 60° |
| 2026-04-22 04:38 | 18.49410 | -69.76774 | 378 ft | 69 kts | 22° |
| 2026-04-22 04:39 | 18.49767 | -69.76631 | 233 ft | 37 kts | 21° |
| 2026-04-22 04:39 | 18.49878 | -69.76581 | 128 ft | 6 kts | 22° |
| 2026-04-22 04:39 | 18.49892 | -69.76576 | 117 ft | 0 kts | 19° |
| 2026-04-22 04:39 | 18.49897 | -69.76576 | 112 ft | 0 kts | 19° |
| 2026-04-22 04:41 | 18.49992 | -69.76546 | 126 ft | 44 kts | 16° |
| 2026-04-22 04:41 | 18.50374 | -69.76392 | 178 ft | 65 kts | 21° |
| 2026-04-22 04:41 | 18.50837 | -69.76355 | 251 ft | 75 kts | 342° |
| 2026-04-22 04:41 | 18.51260 | -69.76688 | 314 ft | 80 kts | 304° |
| 2026-04-22 04:42 | 18.51244 | -69.77256 | 379 ft | 83 kts | 245° |
| 2026-04-22 04:42 | 18.50907 | -69.77734 | 471 ft | 81 kts | 231° |
| 2026-04-22 04:42 | 18.50395 | -69.78007 | 506 ft | 83 kts | 189° |
| 2026-04-22 04:42 | 18.49835 | -69.78108 | 625 ft | 81 kts | 188° |
| 2026-04-22 04:43 | 18.49252 | -69.78158 | 675 ft | 88 kts | 170° |
| 2026-04-22 04:43 | 18.48839 | -69.77662 | 696 ft | 97 kts | 103° |
| 2026-04-22 04:43 | 18.49025 | -69.77017 | 756 ft | 87 kts | 43° |
| 2026-04-22 04:43 | 18.49460 | -69.76762 | 460 ft | 58 kts | 22° |
| 2026-04-22 04:44 | 18.49766 | -69.76633 | 191 ft | 34 kts | 23° |
| 2026-04-22 04:44 | 18.49880 | -69.76585 | 142 ft | 7 kts | 22° |
| 2026-04-22 04:44 | 18.49898 | -69.76579 | 125 ft | 0 kts | 22° |
| 2026-04-22 04:44 | 18.49903 | -69.76578 | 120 ft | 0 kts | 20° |
| 2026-04-22 04:45 | 18.49904 | -69.76578 | 116 ft | 0 kts | 19° |
| 2026-04-22 04:45 | 18.49942 | -69.76573 | 142 ft | 30 kts | 349° |
| 2026-04-22 04:46 | 18.50170 | -69.76720 | 186 ft | 28 kts | 296° |
| 2026-04-22 04:46 | 18.50211 | -69.76773 | 117 ft | 2 kts | 281° |
| 2026-04-22 04:46 | 18.50211 | -69.76777 | 118 ft | 0 kts | 282° |
| 2026-04-22 04:46 | 18.50212 | -69.76777 | 115 ft | 0 kts | 280° |
| 2026-04-22 04:47 | 18.50211 | -69.76777 | 115 ft | 0 kts | 279° |
| 2026-04-22 04:48 | 18.50213 | -69.76763 | 120 ft | 23 kts | 66° |
| 2026-04-22 04:48 | 18.50465 | -69.76368 | 229 ft | 92 kts | 22° |
| 2026-04-22 04:49 | 18.51108 | -69.76455 | 400 ft | 98 kts | 329° |
| 2026-04-22 04:49 | 18.51171 | -69.76947 | 453 ft | 88 kts | 189° |
| 2026-04-22 04:49 | 18.50750 | -69.76875 | 322 ft | 98 kts | 165° |
| 2026-04-22 04:49 | 18.50143 | -69.76681 | 219 ft | 71 kts | 157° |
| 2026-04-22 04:50 | 18.49904 | -69.76594 | 144 ft | 12 kts | 62° |
| 2026-04-22 04:50 | 18.49901 | -69.76577 | 113 ft | 0 kts | 18° |
| 2026-04-22 04:50 | 18.49900 | -69.76574 | 116 ft | 2 kts | 17° |
| 2026-04-22 04:51 | 18.49901 | -69.76572 | 114 ft | 0 kts | 14° |
| 2026-04-22 04:58 | 18.49917 | -69.76570 | 137 ft | 26 kts | 14° |
| 2026-04-22 04:59 | 18.50279 | -69.76526 | 250 ft | 60 kts | 290° |
| 2026-04-22 04:59 | 18.50235 | -69.76754 | 129 ft | 10 kts | 272° |
| 2026-04-22 04:59 | 18.50236 | -69.76782 | 131 ft | 1 kts | 285° |
| 2026-04-22 04:59 | 18.50236 | -69.76783 | 117 ft | 0 kts | 283° |